Time;durP1;ratioP1;P1;durP2;ratioP2;P2;SDS_P1;SDS_P2;PMS_P1;PMS_P2;Temp;Humidity;BMP_temperature;BMP_pressure;BME280_temperature;BME280_humidity;BME280_pressure;Samples;Min_cycle;Max_cycle;Signal;HPM_P1;HPM_P2
2023/07/06 00:01:09;;;;;;;4.60;3.03;;;18.40;99.90;;;;;;5080286;28;20496;-79
2023/07/06 00:04:08;;;;;;;3.60;3.03;;;18.40;99.90;;;;;;5081309;28;20471;-77
2023/07/06 00:07:20;;;;;;;;;;;;;;;;;;;;;
2023/07/06 00:09:54;;;;;;;4.30;3.40;;;18.40;99.90;;;;;;5045414;28;20572;-77
2023/07/06 00:12:26;;;;;;;5.73;3.10;;;18.80;99.90;;;;;;5081833;28;20454;-77
2023/07/06 00:15:00;;;;;;;3.27;3.00;;;18.40;99.90;;;;;;5082741;28;20479;-77
2023/07/06 00:17:34;;;;;;;4.83;3.23;;;18.40;99.90;;;;;;5083696;28;20476;-78
2023/07/06 00:20:16;;;;;;;3.83;3.00;;;18.40;99.90;;;;;;5081337;28;20454;-77
2023/07/06 00:22:54;;;;;;;4.37;2.90;;;18.40;99.90;;;;;;5063640;28;20455;-78
2023/07/06 00:34:49;;;;;;;2.60;2.40;;;18.20;99.90;;;;;;5048795;28;20822;-75
2023/07/06 00:37:59;;;;;;;2.93;2.47;;;18.20;99.90;;;;;;5065295;28;20439;-76
2023/07/06 00:40:50;;;;;;;3.17;2.97;;;18.10;99.90;;;;;;5065514;28;20451;-78
2023/07/06 00:44:01;;;;;;;2.63;2.43;;;18.00;99.90;;;;;;5064952;28;20491;-77
2023/07/06 00:46:51;;;;;;;4.80;2.70;;;18.00;99.90;;;;;;5067533;28;20500;-77
2023/07/06 00:52:58;;;;;;;2.80;2.47;;;18.00;99.90;;;;;;5059694;28;20430;-76
2023/07/06 00:55:58;;;;;;;2.70;2.50;;;18.00;99.90;;;;;;5064159;28;20444;-77
2023/07/06 00:59:05;;;;;;;3.27;2.77;;;18.00;99.90;;;;;;5064983;28;20448;-76
2023/07/06 01:01:43;;;;;;;4.57;3.03;;;18.00;99.90;;;;;;5051462;28;20458;-78
2023/07/06 01:10:33;;;;;;;3.97;3.03;;;17.90;99.90;;;;;;5021230;28;20485;-77
2023/07/06 01:13:16;;;;;;;3.17;2.87;;;17.90;99.90;;;;;;5063843;28;20549;-77
2023/07/06 01:19:17;;;;;;;2.63;2.47;;;17.80;99.90;;;;;;5062897;28;20434;-77
2023/07/06 01:22:23;;;;;;;3.20;2.90;;;17.80;99.90;;;;;;5077674;28;20461;-78
2023/07/06 01:25:40;;;;;;;;;;;;;;;;;;;;;
2023/07/06 01:28:50;;;;;;;3.40;3.20;;;17.70;99.90;;;;;;5063313;28;20476;-78
2023/07/06 01:32:05;;;;;;;3.13;2.83;;;17.50;99.90;;;;;;5085007;28;20474;-76
2023/07/06 01:38:22;;;;;;;6.00;3.00;;;17.50;99.90;;;;;;5083749;28;20457;-74
2023/07/06 01:47:36;;;;;;;3.47;2.43;;;17.30;99.90;;;;;;5076217;28;20453;-77
2023/07/06 01:53:09;;;;;;;7.00;6.03;;;17.10;99.90;;;;;;5081818;28;20497;-76
2023/07/06 01:55:53;;;;;;;4.87;4.43;;;17.00;99.90;;;;;;5082216;28;20545;-77
2023/07/06 01:58:47;;;;;;;4.23;3.70;;;17.00;99.90;;;;;;5079222;28;20481;-77
2023/07/06 02:05:12;;;;;;;4.50;3.13;;;16.90;99.90;;;;;;5157875;27;20538;-78
2023/07/06 02:10:54;;;;;;;3.43;3.20;;;16.70;99.90;;;;;;5130402;27;20456;-75
2023/07/06 02:13:37;;;;;;;4.90;3.50;;;16.70;99.90;;;;;;5146415;27;20470;-75
2023/07/06 02:17:06;;;;;;;3.20;2.90;;;16.70;99.90;;;;;;5144960;27;20502;-76
2023/07/06 02:20:16;;;;;;;3.30;3.00;;;16.60;99.90;;;;;;5138624;27;20472;-77
2023/07/06 02:23:24;;;;;;;4.80;3.83;;;16.60;99.90;;;;;;5143675;27;20490;-77
2023/07/06 02:29:28;;;;;;;;;;;;;;;;;;;;;
2023/07/06 02:32:30;;;;;;;;;;;;;;;;;;;;;
2023/07/06 02:38:17;;;;;;;3.50;3.20;;;16.40;99.90;;;;;;5053517;28;20457;-77
2023/07/06 02:41:35;;;;;;;3.83;3.50;;;16.30;99.90;;;;;;5055353;28;20549;-78
2023/07/06 02:47:41;;;;;;;4.10;3.40;;;16.10;99.90;;;;;;4990382;28;20453;-76
2023/07/06 02:51:25;;;;;;;;;;;;;;;;;;;;;
2023/07/06 02:54:15;;;;;;;4.50;3.80;;;15.90;99.90;;;;;;4959638;28;20471;-78
2023/07/06 03:00:34;;;;;;;5.53;3.50;;;16.10;99.90;;;;;;5040460;28;20557;-76
2023/07/06 03:06:58;;;;;;;4.27;3.87;;;16.00;99.90;;;;;;5093574;28;20451;-78
2023/07/06 03:16:39;;;;;;;4.10;3.70;;;15.90;99.90;;;;;;4996015;28;20762;-76
2023/07/06 03:19:48;;;;;;;7.63;4.07;;;15.80;99.90;;;;;;5118472;28;20939;-77
2023/07/06 03:25:58;;;;;;;3.83;3.53;;;15.80;99.90;;;;;;5136087;27;21009;-77
2023/07/06 03:28:43;;;;;;;4.23;3.93;;;15.80;99.90;;;;;;5144535;27;20455;-75
2023/07/06 03:34:46;;;;;;;4.30;3.37;;;15.80;99.90;;;;;;5148937;27;20467;-76
2023/07/06 03:37:31;;;;;;;3.93;3.53;;;15.70;99.90;;;;;;5144595;27;20444;-75
2023/07/06 03:40:15;;;;;;;6.67;4.20;;;15.70;99.90;;;;;;5150081;27;20448;-77
2023/07/06 03:43:24;;;;;;;4.20;3.33;;;15.60;99.90;;;;;;5142550;27;20478;-78
2023/07/06 03:46:08;;;;;;;4.67;4.13;;;15.60;99.90;;;;;;5119552;27;20450;-75
2023/07/06 03:48:48;;;;;;;3.97;3.53;;;15.60;99.90;;;;;;5141244;27;20525;-75
2023/07/06 03:51:34;;;;;;;4.43;3.70;;;15.50;99.90;;;;;;5141630;27;20451;-75
2023/07/06 03:54:44;;;;;;;6.33;4.40;;;15.50;99.90;;;;;;5142102;27;20821;-77
2023/07/06 03:57:30;;;;;;;5.53;3.70;;;15.40;99.90;;;;;;5058910;28;20478;-75
2023/07/06 04:00:00;;;;;;;4.30;3.90;;;;;;;;;;5104990;27;20452;-75
2023/07/06 04:02:28;;;;;;;6.47;5.00;;;15.40;99.90;;;;;;5142207;27;20419;-77
2023/07/06 04:04:58;;;;;;;3.97;3.67;;;15.40;99.90;;;;;;5141978;27;20471;-76
2023/07/06 04:07:38;;;;;;;5.20;4.40;;;15.40;99.90;;;;;;5139240;27;20450;-75
2023/07/06 04:10:20;;;;;;;4.33;3.93;;;15.40;99.90;;;;;;5139545;27;20442;-76
2023/07/06 04:12:55;;;;;;;7.17;4.40;;;15.40;99.90;;;;;;5139358;27;20453;-75
2023/07/06 04:15:28;;;;;;;4.70;3.80;;;15.40;99.90;;;;;;5139078;27;20446;-76
2023/07/06 04:25:02;;;;;;;4.47;3.73;;;15.30;99.90;;;;;;5057908;28;20481;-76
2023/07/06 04:28:06;;;;;;;5.13;4.00;;;15.30;99.90;;;;;;5028965;28;20455;-77
2023/07/06 04:31:30;;;;;;;;;;;;;;;;;;;;;
2023/07/06 04:34:44;;;;;;;4.97;4.40;;;15.40;99.90;;;;;;5141239;27;20461;-75
2023/07/06 04:43:44;;;;;;;6.63;4.60;;;15.50;99.90;;;;;;5113405;27;20486;-78
2023/07/06 04:55:59;;;;;;;4.40;4.10;;;15.60;99.90;;;;;;4977761;28;20439;-77
2023/07/06 04:58:34;;;;;;;5.17;4.67;;;15.80;99.90;;;;;;5052475;28;20446;-78
2023/07/06 05:01:10;;;;;;;4.90;4.07;;;16.00;99.90;;;;;;5123810;27;20468;-76
2023/07/06 05:03:55;;;;;;;4.83;4.33;;;16.10;99.90;;;;;;5139694;27;20470;-76
2023/07/06 05:06:25;;;;;;;4.27;3.87;;;16.20;99.90;;;;;;5139171;27;20411;-76
2023/07/06 05:08:53;;;;;;;4.17;3.70;;;16.30;99.90;;;;;;5137881;27;20441;-77
2023/07/06 05:11:52;;;;;;;4.67;4.00;;;16.40;99.90;;;;;;5139240;27;20454;-78
2023/07/06 05:14:25;;;;;;;4.30;3.90;;;16.50;99.90;;;;;;5141906;27;20524;-77
2023/07/06 05:17:02;;;;;;;6.17;4.50;;;16.60;99.90;;;;;;5140563;27;20464;-76
2023/07/06 05:19:34;;;;;;;5.37;4.77;;;16.70;99.90;;;;;;5139846;27;20443;-76
2023/07/06 05:22:06;;;;;;;4.00;3.70;;;16.70;99.90;;;;;;5125997;27;20507;-78
2023/07/06 05:24:50;;;;;;;5.10;4.10;;;16.80;99.90;;;;;;5122900;28;20484;-77
2023/07/06 05:27:21;;;;;;;8.73;4.23;;;16.80;99.90;;;;;;5120882;28;20532;-77
2023/07/06 05:30:18;;;;;;;3.87;3.57;;;16.90;99.90;;;;;;5122467;28;20448;-78
2023/07/06 05:36:29;;;;;;;4.80;4.40;;;17.20;99.90;;;;;;5095891;28;20428;-79
2023/07/06 05:42:40;;;;;;;4.93;4.53;;;17.40;99.90;;;;;;5114011;28;20455;-77
2023/07/06 05:45:13;;;;;;;4.93;4.00;;;17.30;99.90;;;;;;5117291;28;20485;-78
2023/07/06 05:47:44;;;;;;;4.60;3.90;;;17.50;99.90;;;;;;5118234;28;20456;-76
2023/07/06 05:50:13;;;;;;;6.63;4.40;;;17.50;99.90;;;;;;5117866;28;20475;-77
2023/07/06 05:55:59;;;;;;;4.77;4.17;;;17.50;99.90;;;;;;5098361;28;20445;-78
2023/07/06 05:58:29;;;;;;;6.43;4.90;;;17.70;99.90;;;;;;5120520;28;21111;-75
2023/07/06 06:01:02;;;;;;;13.93;4.93;;;17.90;99.90;;;;;;5117971;28;20454;-75
2023/07/06 06:03:41;;;;;;;5.40;4.30;;;17.90;99.90;;;;;;5118529;28;20479;-76
2023/07/06 06:06:10;;;;;;;5.33;4.67;;;18.10;99.90;;;;;;5118465;28;20965;-76
2023/07/06 06:08:39;;;;;;;7.50;4.40;;;18.30;99.90;;;;;;5119590;28;20459;-78
2023/07/06 06:11:10;;;;;;;5.60;4.53;;;18.30;99.90;;;;;;5117135;28;20968;-75
2023/07/06 06:13:43;;;;;;;4.73;4.13;;;18.40;99.90;;;;;;5119365;28;20442;-78
2023/07/06 06:16:13;;;;;;;5.73;4.70;;;18.60;99.90;;;;;;5122058;28;20768;-78
2023/07/06 06:18:44;;;;;;;5.87;5.10;;;18.60;99.90;;;;;;5124003;28;20446;-76
2023/07/06 06:21:20;;;;;;;5.57;4.67;;;18.60;99.90;;;;;;5130134;28;20450;-78
2023/07/06 06:28:05;;;;;;;6.40;4.20;;;18.70;99.90;;;;;;5122304;27;20918;-77
2023/07/06 06:31:23;;;;;;;4.07;3.67;;;18.90;99.90;;;;;;5141524;27;20526;-77
2023/07/06 06:34:21;;;;;;;4.40;4.00;;;18.90;99.90;;;;;;5141588;27;20481;-76
2023/07/06 06:40:03;;;;;;;4.53;3.90;;;19.10;99.90;;;;;;5134415;27;20426;-77
2023/07/06 07:15:04;;;;;;;6.67;3.67;;;20.10;99.90;;;;;;4774242;30;20541;-77
2023/07/06 07:41:20;;;;;;;3.80;3.20;;;20.90;99.90;;;;;;4948572;28;20447;-77
2023/07/06 07:51:35;;;;;;;;;;;;;;;;;;;;;
2023/07/06 08:14:00;;;;;;;2.40;2.20;;;21.60;99.90;;;;;;5108782;28;20448;-78
2023/07/06 08:23:21;;;;;;;;;;;;;;;;;;;;;
2023/07/06 08:25:58;;;;;;;4.80;2.67;;;22.10;99.90;;;;;;5109095;28;20478;-77
2023/07/06 08:35:45;;;;;;;3.27;2.60;;;22.40;99.90;;;;;;5052039;28;20452;-77
2023/07/06 08:38:28;;;;;;;3.10;2.83;;;22.40;99.90;;;;;;5049308;28;20451;-76
2023/07/06 08:40:56;;;;;;;5.90;3.20;;;22.50;99.90;;;;;;5043886;28;20427;-78
2023/07/06 08:46:48;;;;;;;5.83;2.70;;;22.50;99.90;;;;;;5044015;28;20503;-78
2023/07/06 08:49:33;;;;;;;6.53;2.87;;;22.80;99.90;;;;;;5043388;28;20537;-77
2023/07/06 08:52:08;;;;;;;3.10;2.80;;;22.70;99.90;;;;;;5086999;28;20435;-77
2023/07/06 08:54:39;;;;;;;4.23;2.57;;;23.20;99.90;;;;;;5106398;28;20941;-76
2023/07/06 08:57:15;;;;;;;2.50;2.30;;;23.30;99.90;;;;;;5107593;28;20485;-77
2023/07/06 08:59:46;;;;;;;3.70;3.10;;;23.10;99.90;;;;;;5103508;28;20537;-76
2023/07/06 09:02:19;;;;;;;3.43;2.93;;;23.40;99.90;;;;;;5101361;28;20450;-76
2023/07/06 09:04:50;;;;;;;2.60;2.40;;;23.60;99.90;;;;;;5103446;28;20486;-77
2023/07/06 09:07:27;;;;;;;8.87;3.10;;;23.70;99.90;;;;;;5100795;28;20427;-76
2023/07/06 09:10:00;;;;;;;2.50;2.30;;;23.90;99.90;;;;;;5094399;28;20498;-77
2023/07/06 09:12:36;;;;;;;5.30;2.57;;;23.40;99.90;;;;;;5094550;28;20485;-76
2023/07/06 09:15:10;;;;;;;2.47;2.23;;;23.50;99.90;;;;;;5094555;28;20441;-78
2023/07/06 09:17:46;;;;;;;3.70;2.43;;;23.80;99.90;;;;;;5094509;28;20461;-75
2023/07/06 09:20:17;;;;;;;4.27;2.77;;;23.90;99.90;;;;;;5095453;28;20447;-75
2023/07/06 09:22:47;;;;;;;3.30;2.70;;;23.80;99.90;;;;;;5117359;28;20446;-76
2023/07/06 09:25:19;;;;;;;2.67;2.30;;;24.10;99.90;;;;;;5116918;28;20481;-77
2023/07/06 09:27:56;;;;;;;2.90;2.60;;;24.50;99.90;;;;;;5116086;28;20407;-76
2023/07/06 09:30:32;;;;;;;5.93;2.77;;;24.70;99.70;;;;;;5116376;28;20968;-77
2023/07/06 09:33:16;;;;;;;3.53;2.30;;;24.90;99.30;;;;;;5115033;28;20466;-76
2023/07/06 09:35:44;;;;;;;3.10;2.50;;;25.10;99.10;;;;;;5114047;28;20443;-76
2023/07/06 09:38:32;;;;;;;2.50;2.30;;;25.60;97.80;;;;;;5113473;28;20440;-76
2023/07/06 09:44:49;;;;;;;3.47;2.47;;;25.00;96.90;;;;;;5072992;28;20451;-76
2023/07/06 09:47:35;;;;;;;5.63;3.00;;;24.80;97.80;;;;;;5066522;28;20448;-78
2023/07/06 09:53:59;;;;;;;3.20;2.87;;;24.70;97.60;;;;;;5053767;28;20494;-77
2023/07/06 09:56:33;;;;;;;3.70;2.93;;;24.90;96.50;;;;;;5094686;28;20447;-76
2023/07/06 09:59:07;;;;;;;4.43;2.50;;;25.10;96.70;;;;;;5096302;28;20456;-76
2023/07/06 10:17:45;;;;;;;3.37;2.40;;;25.60;93.40;;;;;;4954481;28;20979;-76
2023/07/06 10:21:30;;;;;;;2.60;2.40;;;26.10;92.60;;;;;;5030261;28;20457;-76
2023/07/06 11:01:31;;;;;;;2.60;2.40;;;25.40;88.60;;;;;;4901077;29;20455;-76
2023/07/06 11:24:48;;;;;;;6.40;3.23;;;26.90;84.60;;;;;;4980990;28;20482;-77
2023/07/06 11:27:32;;;;;;;2.97;2.63;;;27.50;83.10;;;;;;4982635;28;20453;-76
2023/07/06 11:30:22;;;;;;;2.83;2.53;;;28.10;82.20;;;;;;4984838;28;20524;-76
2023/07/06 11:33:19;;;;;;;2.67;2.33;;;28.00;80.30;;;;;;5003261;28;20436;-77
2023/07/06 11:35:58;;;;;;;5.53;2.67;;;27.40;80.70;;;;;;5106483;28;20471;-77
2023/07/06 11:39:08;;;;;;;3.13;2.80;;;27.30;80.80;;;;;;5112028;28;20452;-76
2023/07/06 11:41:56;;;;;;;7.10;3.03;;;27.30;81.00;;;;;;5105381;28;20456;-76
2023/07/06 11:45:39;;;;;;;;;;;;;;;;;;;;;
2023/07/06 12:02:27;;;;;;;3.70;2.90;;;27.70;79.60;;;;;;4786106;29;20440;-76
2023/07/06 12:08:57;;;;;;;2.80;2.60;;;28.60;76.00;;;;;;4905374;29;20456;-76
2023/07/06 12:11:55;;;;;;;3.27;2.97;;;28.70;73.50;;;;;;4902468;29;20461;-76
2023/07/06 12:17:52;;;;;;;3.13;2.90;;;28.90;72.60;;;;;;4901024;29;20467;-77
2023/07/06 12:20:56;;;;;;;4.80;3.00;;;29.20;71.00;;;;;;4885481;29;20458;-77
2023/07/06 12:24:29;;;;;;;2.70;2.50;;;29.20;69.90;;;;;;4968400;28;20475;-75
2023/07/06 12:27:35;;;;;;;4.07;2.87;;;29.40;70.60;;;;;;5018091;28;20506;-76
2023/07/06 12:43:45;;;;;;;2.80;2.60;;;29.20;66.80;;;;;;4882543;29;20473;-76
2023/07/06 12:46:21;;;;;;;3.20;2.70;;;29.50;66.50;;;;;;4882258;29;20605;-76
2023/07/06 12:49:20;;;;;;;2.90;2.57;;;29.90;66.30;;;;;;4951981;28;20477;-76
2023/07/06 12:51:50;;;;;;;2.60;2.40;;;30.30;65.60;;;;;;5082779;28;20494;-76
2023/07/06 12:54:18;;;;;;;4.47;3.17;;;29.50;65.90;;;;;;5097462;28;20468;-76
2023/07/06 12:56:59;;;;;;;3.10;2.80;;;28.10;68.60;;;;;;5095641;28;20505;-77
2023/07/06 12:59:33;;;;;;;4.27;2.60;;;28.20;69.10;;;;;;5096325;28;20444;-76
2023/07/06 13:02:16;;;;;;;3.00;2.63;;;28.40;68.70;;;;;;5096877;28;20519;-76
2023/07/06 13:04:47;;;;;;;3.20;2.73;;;28.70;67.40;;;;;;5098941;28;20447;-77
2023/07/06 13:07:19;;;;;;;2.80;2.37;;;28.80;66.70;;;;;;5102372;28;20472;-75
2023/07/06 13:09:50;;;;;;;2.77;2.57;;;29.00;68.70;;;;;;5100207;28;20432;-76
2023/07/06 13:12:23;;;;;;;3.27;2.80;;;28.90;69.20;;;;;;5100928;28;20452;-76
2023/07/06 13:14:56;;;;;;;4.93;2.80;;;29.20;70.00;;;;;;5100570;28;20507;-76
2023/07/06 13:17:32;;;;;;;2.33;2.13;;;29.10;69.40;;;;;;5099418;28;20455;-76
2023/07/06 13:20:00;;;;;;;3.10;2.80;;;29.30;70.20;;;;;;5100627;28;20478;-75
2023/07/06 13:22:30;;;;;;;7.07;2.80;;;29.30;68.10;;;;;;5118132;28;20442;-77
2023/07/06 13:25:17;;;;;;;2.40;2.27;;;29.60;68.80;;;;;;5120390;28;20935;-76
2023/07/06 13:27:47;;;;;;;2.50;2.40;;;29.10;67.90;;;;;;5119705;28;20439;-78
2023/07/06 13:30:21;;;;;;;2.80;2.10;;;29.50;67.20;;;;;;5119496;28;20931;-74
2023/07/06 13:33:10;;;;;;;5.93;3.10;;;29.30;66.90;;;;;;5122743;28;20434;-76
2023/07/06 13:35:38;;;;;;;2.93;2.70;;;28.70;67.50;;;;;;5126843;28;20439;-77
2023/07/06 13:38:39;;;;;;;3.17;2.50;;;28.30;67.40;;;;;;5128139;28;20467;-77
2023/07/06 13:41:12;;;;;;;3.80;2.67;;;28.70;67.50;;;;;;5115562;28;20469;-74
2023/07/06 13:43:48;;;;;;;4.63;2.57;;;28.90;66.80;;;;;;5128297;28;20590;-77
2023/07/06 13:46:26;;;;;;;4.60;3.10;;;28.80;67.20;;;;;;5128691;28;20553;-78
2023/07/06 13:48:56;;;;;;;4.37;2.60;;;28.80;67.20;;;;;;5127181;28;20500;-77
2023/07/06 13:52:06;;;;;;;4.67;2.50;;;28.80;66.30;;;;;;5127368;28;20451;-75
2023/07/06 13:54:34;;;;;;;4.10;2.63;;;28.80;66.60;;;;;;5043484;28;20494;-76
2023/07/06 13:57:03;;;;;;;6.43;3.30;;;28.80;66.20;;;;;;5127450;28;20462;-77
2023/07/06 13:59:38;;;;;;;2.97;2.77;;;28.80;66.00;;;;;;5125736;28;20463;-75
2023/07/06 14:02:14;;;;;;;3.03;2.57;;;29.00;65.80;;;;;;5126240;28;20451;-76
2023/07/06 14:04:43;;;;;;;3.23;2.93;;;29.00;66.10;;;;;;5117326;28;21007;-76
2023/07/06 14:07:18;;;;;;;3.47;3.17;;;28.40;66.40;;;;;;5116365;28;20532;-78
2023/07/06 14:12:44;;;;;;;2.80;2.50;;;28.10;67.80;;;;;;5105384;28;20459;-77
2023/07/06 14:15:26;;;;;;;3.40;2.60;;;28.10;68.00;;;;;;5116458;28;20451;-76
2023/07/06 14:18:00;;;;;;;3.77;3.40;;;28.30;67.50;;;;;;5116139;28;20458;-76
2023/07/06 14:20:52;;;;;;;5.93;2.60;;;28.30;66.80;;;;;;5114298;28;20534;-77
2023/07/06 14:23:22;;;;;;;3.77;2.93;;;28.70;66.90;;;;;;5094627;28;21288;-75
2023/07/06 14:25:51;;;;;;;4.43;2.73;;;29.10;65.50;;;;;;5095329;28;20559;-77
2023/07/06 14:28:26;;;;;;;3.40;2.90;;;29.40;65.70;;;;;;5096600;28;20450;-77
2023/07/06 14:30:56;;;;;;;2.70;2.50;;;29.80;65.10;;;;;;5095134;28;20434;-77
2023/07/06 14:33:28;;;;;;;2.60;2.47;;;29.90;64.50;;;;;;5093606;28;20468;-77
2023/07/06 14:35:56;;;;;;;2.60;2.40;;;29.10;64.70;;;;;;5094147;28;20432;-76
2023/07/06 14:38:26;;;;;;;3.20;2.80;;;28.50;66.30;;;;;;5094690;28;20452;-77
2023/07/06 14:40:55;;;;;;;5.47;2.53;;;28.70;66.40;;;;;;5097232;28;20435;-78
2023/07/06 14:43:26;;;;;;;5.20;2.97;;;28.90;65.30;;;;;;5096190;28;20811;-75
2023/07/06 14:45:54;;;;;;;2.60;2.40;;;29.20;65.00;;;;;;5096439;28;21207;-75
2023/07/06 14:48:27;;;;;;;4.37;2.97;;;29.40;64.30;;;;;;5093424;28;20459;-75
2023/07/06 14:51:06;;;;;;;4.10;2.50;;;29.90;63.90;;;;;;5092769;28;20433;-75
2023/07/06 14:53:38;;;;;;;2.60;2.40;;;30.20;63.00;;;;;;5091334;28;20476;-76
2023/07/06 14:56:08;;;;;;;3.80;3.47;;;30.60;62.50;;;;;;5092745;28;20448;-77
2023/07/06 14:58:40;;;;;;;3.03;2.70;;;30.40;61.10;;;;;;5093228;28;20529;-77
2023/07/06 15:01:08;;;;;;;2.60;2.40;;;30.80;61.50;;;;;;5092010;28;20459;-76
2023/07/06 15:03:42;;;;;;;3.63;3.03;;;31.00;61.00;;;;;;5091180;28;21021;-76
2023/07/06 15:06:15;;;;;;;5.13;2.90;;;30.60;60.00;;;;;;5091800;28;20480;-77
2023/07/06 15:08:43;;;;;;;2.80;2.60;;;30.80;60.10;;;;;;5091770;28;20448;-76
2023/07/06 15:11:16;;;;;;;3.83;2.80;;;30.60;59.90;;;;;;5100338;28;20517;-76
2023/07/06 15:13:51;;;;;;;3.50;2.50;;;30.80;59.20;;;;;;5105378;28;20514;-76
2023/07/06 15:16:20;;;;;;;2.57;2.37;;;30.70;59.40;;;;;;5100819;28;20448;-76
2023/07/06 15:18:56;;;;;;;2.93;2.50;;;30.90;59.20;;;;;;5101473;28;20456;-74
2023/07/06 15:27:27;;;;;;;3.00;2.53;;;31.40;58.90;;;;;;5118665;28;20483;-78
2023/07/06 15:30:14;;;;;;;2.87;2.60;;;31.60;58.10;;;;;;5120648;28;20482;-76
2023/07/06 15:32:43;;;;;;;4.17;2.80;;;31.60;57.30;;;;;;5119837;28;20564;-76
2023/07/06 15:35:19;;;;;;;3.33;2.60;;;31.40;57.90;;;;;;5122867;28;20651;-75
2023/07/06 15:37:50;;;;;;;2.90;2.40;;;31.20;58.70;;;;;;5122685;28;20494;-76
2023/07/06 15:40:24;;;;;;;3.50;3.03;;;31.20;58.70;;;;;;5123535;28;20839;-75
2023/07/06 15:42:53;;;;;;;3.77;2.67;;;31.40;57.80;;;;;;5124200;28;20529;-76
2023/07/06 15:45:22;;;;;;;3.40;2.80;;;31.00;57.70;;;;;;5124846;28;20474;-77
2023/07/06 15:47:54;;;;;;;3.13;2.93;;;30.50;58.00;;;;;;5125761;28;20475;-76
2023/07/06 15:53:36;;;;;;;3.63;2.63;;;30.60;58.20;;;;;;5082296;28;20510;-77
2023/07/06 15:56:06;;;;;;;3.00;2.80;;;30.00;59.40;;;;;;5126975;28;20501;-76
2023/07/06 15:58:37;;;;;;;3.23;2.90;;;29.50;59.60;;;;;;5124909;28;20517;-78
2023/07/06 16:01:13;;;;;;;2.90;2.67;;;28.90;61.00;;;;;;5120991;28;20443;-79
2023/07/06 16:03:41;;;;;;;3.80;3.00;;;28.70;60.80;;;;;;5116598;28;20841;-77
2023/07/06 16:06:11;;;;;;;2.93;2.73;;;29.00;59.80;;;;;;5117254;28;20843;-76
2023/07/06 16:08:39;;;;;;;4.50;2.87;;;29.70;59.80;;;;;;5117761;28;20621;-77
2023/07/06 16:11:07;;;;;;;2.90;2.70;;;30.50;58.70;;;;;;5116980;28;20479;-77
2023/07/06 16:13:35;;;;;;;2.90;2.70;;;31.20;58.00;;;;;;5117910;28;20872;-80
2023/07/06 16:16:03;;;;;;;3.03;2.63;;;31.20;57.30;;;;;;5116204;28;20477;-79
2023/07/06 16:18:30;;;;;;;3.27;2.60;;;31.10;57.90;;;;;;5115850;28;20849;-77
2023/07/06 16:21:01;;;;;;;5.40;2.77;;;30.00;58.60;;;;;;5111858;27;20985;-77
2023/07/06 16:23:30;;;;;;;2.73;2.53;;;29.80;59.40;;;;;;5101589;28;20468;-76
2023/07/06 16:26:06;;;;;;;3.07;2.87;;;30.40;58.40;;;;;;5102829;28;20474;-75
2023/07/06 16:28:34;;;;;;;3.13;2.83;;;31.00;58.10;;;;;;5099571;28;20451;-78
2023/07/06 16:31:03;;;;;;;4.67;3.23;;;31.00;57.10;;;;;;5104267;28;20453;-75
2023/07/06 16:33:33;;;;;;;3.77;2.80;;;31.00;57.10;;;;;;5106231;28;21006;-77
2023/07/06 16:36:04;;;;;;;3.07;2.87;;;30.90;57.20;;;;;;5103329;28;20453;-77
2023/07/06 16:38:33;;;;;;;2.70;2.50;;;30.80;57.40;;;;;;5108733;28;20459;-75
2023/07/06 16:41:02;;;;;;;3.80;2.53;;;30.40;58.40;;;;;;5107214;28;20478;-77
2023/07/06 16:43:36;;;;;;;2.80;2.60;;;30.70;57.80;;;;;;5105007;28;20543;-78
2023/07/06 16:46:06;;;;;;;3.33;2.87;;;30.80;57.60;;;;;;5104437;28;20497;-77
2023/07/06 16:48:47;;;;;;;4.93;2.73;;;30.80;57.30;;;;;;5105414;28;20448;-78
2023/07/06 16:51:17;;;;;;;2.77;2.57;;;30.60;57.20;;;;;;5104040;28;20520;-76
2023/07/06 16:54:01;;;;;;;3.00;2.70;;;30.80;57.30;;;;;;5103100;28;20460;-79
2023/07/06 16:56:31;;;;;;;3.40;3.10;;;31.00;57.20;;;;;;5110060;28;20824;-77
2023/07/06 16:58:58;;;;;;;3.40;3.10;;;31.10;57.00;;;;;;5113113;28;20455;-77
2023/07/06 17:01:26;;;;;;;3.10;2.90;;;30.40;57.20;;;;;;5114039;28;20458;-75
2023/07/06 17:03:54;;;;;;;3.40;3.10;;;30.60;57.40;;;;;;5107857;28;20468;-77
2023/07/06 17:06:27;;;;;;;3.33;2.60;;;30.40;57.70;;;;;;5099822;28;20424;-78
2023/07/06 17:08:57;;;;;;;4.97;3.00;;;30.30;58.00;;;;;;5097721;28;20440;-77
2023/07/06 17:11:33;;;;;;;2.70;2.50;;;29.60;58.50;;;;;;5098452;28;20456;-78
2023/07/06 17:14:05;;;;;;;4.40;3.20;;;29.10;59.30;;;;;;5103060;28;20474;-76
2023/07/06 17:16:33;;;;;;;3.07;2.87;;;29.30;59.60;;;;;;5104507;28;20462;-77
2023/07/06 17:19:02;;;;;;;3.33;3.03;;;29.60;58.80;;;;;;5101892;28;20489;-76
2023/07/06 17:21:40;;;;;;;4.70;2.90;;;29.70;59.30;;;;;;5109888;27;20431;-76
2023/07/06 17:24:11;;;;;;;3.10;2.90;;;29.60;59.10;;;;;;5117180;28;20498;-75
2023/07/06 17:26:45;;;;;;;3.10;2.77;;;29.10;59.30;;;;;;5117043;28;20555;-77
2023/07/06 17:29:13;;;;;;;3.67;2.70;;;28.90;59.80;;;;;;5116198;28;20447;-76
2023/07/06 17:31:47;;;;;;;3.00;2.50;;;29.30;59.40;;;;;;5116604;28;20436;-77
2023/07/06 17:34:18;;;;;;;3.30;2.73;;;29.00;60.00;;;;;;5117945;28;20471;-75
2023/07/06 17:36:45;;;;;;;2.83;2.63;;;28.70;59.60;;;;;;5118251;28;20446;-76
2023/07/06 17:39:15;;;;;;;3.57;3.10;;;29.00;59.80;;;;;;5118309;28;20480;-76
2023/07/06 17:41:43;;;;;;;5.07;2.60;;;29.10;59.40;;;;;;5117377;28;20514;-75
2023/07/06 17:44:11;;;;;;;2.87;2.67;;;29.40;59.50;;;;;;5115523;28;20498;-77
2023/07/06 17:46:39;;;;;;;3.30;3.10;;;29.80;58.70;;;;;;5115636;28;20481;-76
2023/07/06 17:49:08;;;;;;;3.57;3.27;;;28.40;59.70;;;;;;5116180;28;20458;-77
2023/07/06 17:51:35;;;;;;;3.80;3.50;;;28.30;60.90;;;;;;5116890;28;20439;-77
2023/07/06 17:54:04;;;;;;;4.90;3.00;;;28.60;60.60;;;;;;5116264;28;20756;-76
2023/07/06 17:56:34;;;;;;;3.33;3.03;;;28.80;59.90;;;;;;5116811;28;20514;-77
2023/07/06 17:59:09;;;;;;;3.17;2.60;;;28.30;61.20;;;;;;5118056;28;20471;-76
2023/07/06 18:01:37;;;;;;;3.30;3.00;;;28.40;61.30;;;;;;5116391;28;20442;-76
2023/07/06 18:04:05;;;;;;;3.90;2.70;;;27.90;61.80;;;;;;5115472;28;20458;-77
2023/07/06 18:06:36;;;;;;;5.20;3.00;;;28.00;62.30;;;;;;5116444;28;20447;-77
2023/07/06 18:09:04;;;;;;;4.60;3.40;;;28.10;61.70;;;;;;5115194;28;20442;-78
2023/07/06 18:11:34;;;;;;;3.60;2.90;;;28.00;61.60;;;;;;5116458;28;20461;-77
2023/07/06 18:14:12;;;;;;;3.03;2.70;;;28.00;61.60;;;;;;5115021;28;20435;-76
2023/07/06 18:16:41;;;;;;;3.50;2.83;;;27.60;61.90;;;;;;5116873;28;20462;-76
2023/07/06 18:19:16;;;;;;;4.20;2.97;;;27.70;62.30;;;;;;5117236;28;20449;-77
2023/07/06 18:21:46;;;;;;;3.13;2.80;;;27.60;62.70;;;;;;5105020;28;20938;-75
2023/07/06 18:24:16;;;;;;;3.83;3.20;;;27.20;63.20;;;;;;5096599;28;20486;-76
2023/07/06 18:26:49;;;;;;;3.20;3.00;;;26.90;64.40;;;;;;5097957;28;20501;-76
2023/07/06 18:29:22;;;;;;;3.63;3.33;;;26.50;64.90;;;;;;5097312;28;20547;-77
2023/07/06 18:32:07;;;;;;;3.20;3.00;;;26.30;64.80;;;;;;5098120;28;20993;-77
2023/07/06 18:34:49;;;;;;;4.03;3.23;;;26.20;65.40;;;;;;5094627;28;20456;-76
2023/07/06 18:40:06;;;;;;;3.50;3.20;;;26.50;65.00;;;;;;5086329;28;20839;-76
2023/07/06 18:42:54;;;;;;;5.73;3.13;;;26.60;65.10;;;;;;5095150;28;20451;-78
2023/07/06 18:45:23;;;;;;;3.20;2.90;;;26.60;66.10;;;;;;5098120;28;20447;-77
2023/07/06 18:47:52;;;;;;;5.17;3.30;;;26.40;65.90;;;;;;5101837;28;20482;-76
2023/07/06 18:50:23;;;;;;;3.60;3.30;;;26.20;65.90;;;;;;5103252;28;20558;-76
2023/07/06 18:52:59;;;;;;;4.67;4.17;;;25.90;66.60;;;;;;5102529;28;20448;-77
2023/07/06 18:55:39;;;;;;;5.97;3.90;;;26.00;67.40;;;;;;5102769;28;20442;-76
2023/07/06 18:58:28;;;;;;;3.40;3.10;;;26.00;67.40;;;;;;5102243;28;20828;-75
2023/07/06 19:00:58;;;;;;;8.67;3.93;;;25.90;67.50;;;;;;5100417;28;20448;-77
2023/07/06 19:03:31;;;;;;;5.77;3.47;;;25.90;68.20;;;;;;5100663;28;20480;-77
2023/07/06 19:05:59;;;;;;;6.37;3.70;;;25.80;68.00;;;;;;5101374;28;20943;-79
2023/07/06 19:08:37;;;;;;;4.63;3.43;;;25.80;67.90;;;;;;5100427;28;20475;-78
2023/07/06 19:11:06;;;;;;;3.90;3.30;;;25.70;68.30;;;;;;5100169;28;20452;-77
2023/07/06 19:13:35;;;;;;;6.83;3.50;;;25.50;68.20;;;;;;5100209;28;20975;-78
2023/07/06 19:16:03;;;;;;;4.00;3.70;;;25.50;68.30;;;;;;5100152;28;20531;-76
2023/07/06 19:18:31;;;;;;;4.83;3.17;;;25.40;68.30;;;;;;5102124;28;20448;-77
2023/07/06 19:20:59;;;;;;;4.13;3.77;;;25.30;68.80;;;;;;5110090;28;20454;-78
2023/07/06 19:23:33;;;;;;;4.70;3.90;;;25.20;69.50;;;;;;5120224;28;20467;-77
2023/07/06 19:26:02;;;;;;;3.60;3.30;;;25.00;70.00;;;;;;5119380;28;20427;-78
2023/07/06 19:28:32;;;;;;;4.03;3.73;;;25.00;70.30;;;;;;5119649;28;20565;-78
2023/07/06 19:31:01;;;;;;;4.00;3.30;;;24.90;70.50;;;;;;5120562;28;20470;-77
2023/07/06 19:33:29;;;;;;;5.20;3.17;;;24.90;70.70;;;;;;5120496;28;20477;-78
2023/07/06 19:35:59;;;;;;;4.57;4.17;;;24.80;70.90;;;;;;5122332;28;20427;-77
2023/07/06 19:38:30;;;;;;;4.60;3.63;;;24.70;71.50;;;;;;5124552;28;20925;-77
2023/07/06 19:40:58;;;;;;;5.17;3.93;;;24.50;71.60;;;;;;5123698;28;20454;-77
2023/07/06 19:43:25;;;;;;;4.20;3.83;;;24.50;72.20;;;;;;5125355;28;20462;-77